createdAt,value
2017-10-20T00:00:29.993Z,97697.41
2017-10-20T00:01:01.642Z,97703.34
2017-10-20T00:01:33.533Z,97703.72
2017-10-20T00:02:05.187Z,97696.52
2017-10-20T00:02:36.851Z,97697.33
2017-10-20T00:03:08.506Z,97693.98
2017-10-20T00:03:40.157Z,97696.53
2017-10-20T00:04:11.806Z,97693.98
2017-10-20T00:04:43.451Z,97696.14
2017-10-20T00:05:15.104Z,97695.70
2017-10-20T00:05:46.756Z,97695.28
2017-10-20T00:06:18.406Z,97691.50
2017-10-20T00:06:50.098Z,97697.02
2017-10-20T00:07:21.768Z,97690.22
2017-10-20T00:07:53.422Z,97694.42
2017-10-20T00:08:25.074Z,97690.17
2017-10-20T00:08:56.726Z,97688.03
2017-10-20T00:09:28.374Z,97689.75
2017-10-20T00:10:00.149Z,97686.80
2017-10-20T00:10:31.797Z,97688.08
2017-10-20T00:11:03.487Z,97689.80
2017-10-20T00:11:35.138Z,97689.80
2017-10-20T00:12:06.977Z,97687.20
2017-10-20T00:12:38.665Z,97690.17
2017-10-20T00:13:10.367Z,97693.58
2017-10-20T00:13:42.256Z,97685.91
2017-10-20T00:14:13.912Z,97691.45
2017-10-20T00:14:45.558Z,97693.63
2017-10-20T00:15:17.207Z,97684.70
2017-10-20T00:15:48.858Z,97688.11
2017-10-20T00:16:20.510Z,97691.07
2017-10-20T00:16:52.162Z,97697.83
2017-10-20T00:17:23.809Z,97693.19
2017-10-20T00:17:55.659Z,97690.64
2017-10-20T00:18:27.359Z,97691.45
2017-10-20T00:18:59.257Z,97690.65
2017-10-20T00:19:30.928Z,97691.08
2017-10-20T00:20:02.883Z,97693.20
2017-10-20T00:20:34.529Z,97685.14
2017-10-20T00:21:06.178Z,97686.00
2017-10-20T00:21:38.115Z,97688.56
2017-10-20T00:22:09.773Z,97691.55
2017-10-20T00:22:41.422Z,97690.29
2017-10-20T00:23:13.069Z,97688.59
2017-10-20T00:23:44.718Z,97688.22
2017-10-20T00:24:16.383Z,97691.21
2017-10-20T00:24:48.239Z,97690.41
2017-10-20T00:25:19.913Z,97690.84
2017-10-20T00:25:51.563Z,97691.69
2017-10-20T00:26:23.214Z,97688.73
2017-10-20T00:26:54.910Z,97691.28
2017-10-20T00:27:26.788Z,97690.91
2017-10-20T00:27:58.438Z,97696.88
2017-10-20T00:28:30.130Z,97695.17
2017-10-20T00:29:01.782Z,97697.30
2017-10-20T00:29:33.663Z,97701.13
2017-10-20T00:30:05.500Z,97707.89
2017-10-20T00:30:37.254Z,97704.95
2017-10-20T00:31:08.954Z,97710.48
2017-10-20T00:31:40.602Z,97707.52
2017-10-20T00:32:12.254Z,97708.37
2017-10-20T00:32:44.091Z,97707.94
2017-10-20T00:33:15.743Z,97704.13
2017-10-20T00:33:47.411Z,97705.84
2017-10-20T00:34:19.361Z,97707.95
2017-10-20T00:34:51.015Z,97705.02
2017-10-20T00:35:22.671Z,97705.02
2017-10-20T00:35:54.318Z,97705.03
2017-10-20T00:36:26.236Z,97705.46
2017-10-20T00:36:57.891Z,97702.91
2017-10-20T00:37:29.538Z,97704.19
2017-10-20T00:38:01.186Z,97704.61
2017-10-20T00:38:32.833Z,97704.20
2017-10-20T00:39:04.482Z,97705.91
2017-10-20T00:39:36.130Z,97703.78
2017-10-20T00:40:07.778Z,97705.05
2017-10-20T00:40:39.430Z,97703.77
2017-10-20T00:41:11.317Z,97702.93
2017-10-20T00:41:43.010Z,97701.65
2017-10-20T00:42:14.661Z,97705.91
2017-10-20T00:42:46.314Z,97702.49
2017-10-20T00:43:18.006Z,97701.20
2017-10-20T00:43:49.654Z,97697.39
2017-10-20T00:44:21.314Z,97700.36
2017-10-20T00:44:52.962Z,97698.29
2017-10-20T00:45:24.610Z,97703.77
2017-10-20T00:45:56.309Z,97696.95
2017-10-20T00:46:27.953Z,97699.09
2017-10-20T00:46:59.598Z,97697.39
2017-10-20T00:47:31.246Z,97693.98
2017-10-20T00:48:02.898Z,97699.94
2017-10-20T00:48:34.545Z,97693.98
2017-10-20T00:49:06.194Z,97697.01
2017-10-20T00:49:37.858Z,97697.44
2017-10-20T00:50:09.538Z,97697.02
2017-10-20T00:50:41.191Z,97695.73
2017-10-20T00:51:12.881Z,97701.20
2017-10-20T00:51:44.530Z,97699.94
2017-10-20T00:52:16.416Z,97694.84
2017-10-20T00:52:48.066Z,97690.16
2017-10-20T00:53:19.753Z,97694.83
2017-10-20T00:53:51.604Z,97694.34
2017-10-20T00:54:23.289Z,97693.03
2017-10-20T00:54:54.942Z,97694.27
2017-10-20T00:55:26.593Z,97691.71
2017-10-20T00:55:58.237Z,97688.30
2017-10-20T00:56:29.887Z,97691.33
2017-10-20T00:57:01.534Z,97689.63
2017-10-20T00:57:33.190Z,97689.86
2017-10-20T00:58:05.067Z,97688.46
2017-10-20T00:58:36.718Z,97685.06
2017-10-20T00:59:08.378Z,97683.84
2017-10-20T00:59:40.324Z,97686.42
2017-10-20T01:00:11.978Z,97686.02
2017-10-20T01:00:43.809Z,97683.02
2017-10-20T01:01:15.462Z,97684.14
2017-10-20T01:01:47.114Z,97683.35
2017-10-20T01:02:18.758Z,97680.86
2017-10-20T01:02:50.406Z,97683.03
2017-10-20T01:03:22.121Z,97683.09
2017-10-20T01:03:53.950Z,97684.87
2017-10-20T01:04:25.715Z,97683.19
2017-10-20T01:04:57.369Z,97680.69
2017-10-20T01:05:29.018Z,97679.00
2017-10-20T01:06:00.667Z,97683.28
2017-10-20T01:06:32.492Z,97679.07
2017-10-20T01:07:04.142Z,97686.30
2017-10-20T01:07:35.790Z,97676.52
2017-10-20T01:08:07.439Z,97676.09
2017-10-20T01:08:39.167Z,97676.95
2017-10-20T01:09:10.817Z,97679.50
2017-10-20T01:09:42.466Z,97677.37
2017-10-20T01:10:14.114Z,97673.11
2017-10-20T01:10:45.766Z,97674.76
2017-10-20T01:11:17.415Z,97672.20
2017-10-20T01:11:49.066Z,97674.76
2017-10-20T01:12:20.713Z,97675.61
2017-10-20T01:12:52.600Z,97668.80
2017-10-20T01:13:24.256Z,97674.80
2017-10-20T01:13:55.975Z,97672.20
2017-10-20T01:14:27.833Z,97674.34
2017-10-20T01:14:59.482Z,97669.20
2017-10-20T01:15:31.134Z,97672.14
2017-10-20T01:16:02.786Z,97673.84
2017-10-20T01:16:34.434Z,97669.58
2017-10-20T01:17:06.081Z,97668.30
2017-10-20T01:17:37.726Z,97668.28
2017-10-20T01:18:09.375Z,97669.14
2017-10-20T01:18:41.026Z,97671.27
2017-10-20T01:19:12.674Z,97672.11
2017-10-20T01:19:44.479Z,97669.98
2017-10-20T01:20:16.142Z,97667.01
2017-10-20T01:20:47.794Z,97674.23
2017-10-20T01:21:19.446Z,97674.66
2017-10-20T01:21:51.127Z,97672.95
2017-10-20T01:22:22.778Z,97675.09
2017-10-20T01:22:54.429Z,97676.37
2017-10-20T01:23:26.078Z,97676.79
2017-10-20T01:23:57.967Z,97672.97
2017-10-20T01:24:29.658Z,97679.30
2017-10-20T01:25:01.310Z,97669.55
2017-10-20T01:25:32.960Z,97671.22
2017-10-20T01:26:04.614Z,97670.41
2017-10-20T01:26:36.269Z,97672.10
2017-10-20T01:27:08.160Z,97670.36
2017-10-20T01:27:39.809Z,97669.55
2017-10-20T01:28:11.486Z,97674.25
2017-10-20T01:28:43.138Z,97671.69
2017-10-20T01:29:14.785Z,97667.86
2017-10-20T01:29:46.493Z,97671.27
2017-10-20T01:30:18.142Z,97672.56
2017-10-20T01:30:49.789Z,97672.98
2017-10-20T01:31:21.438Z,97670.05
2017-10-20T01:31:53.089Z,97670.91
2017-10-20T01:32:24.744Z,97669.63
2017-10-20T01:32:57.449Z,97669.20
2017-10-20T01:33:29.104Z,97673.04
2017-10-20T01:34:00.753Z,97670.92
2017-10-20T01:34:32.402Z,97673.46
2017-10-20T01:35:04.285Z,97674.33
2017-10-20T01:35:36.064Z,97676.46
2017-10-20T01:36:07.916Z,97675.20
2017-10-20T01:36:39.566Z,97675.20
2017-10-20T01:37:11.217Z,97674.75
2017-10-20T01:37:42.867Z,97677.36
2017-10-20T01:38:14.518Z,97669.28
2017-10-20T01:38:46.166Z,97668.87
2017-10-20T01:39:17.814Z,97673.53
2017-10-20T01:39:49.608Z,97669.29
2017-10-20T01:40:21.306Z,97668.50
2017-10-20T01:40:52.958Z,97672.70
2017-10-20T01:41:24.644Z,97668.87
2017-10-20T01:41:56.297Z,97675.27
2017-10-20T01:42:27.946Z,97672.29
2017-10-20T01:42:59.594Z,97670.59
2017-10-20T01:43:31.242Z,97674.42
2017-10-20T01:44:02.890Z,97673.14
2017-10-20T01:44:34.537Z,97669.79
2017-10-20T01:45:06.334Z,97668.94
2017-10-20T01:45:38.038Z,97677.45
2017-10-20T01:46:09.726Z,97668.95
2017-10-20T01:46:41.674Z,97670.66
2017-10-20T01:47:13.625Z,97672.83
2017-10-20T01:47:45.274Z,97674.95
2017-10-20T01:48:16.927Z,97673.27
2017-10-20T01:48:48.582Z,97673.70
2017-10-20T01:49:20.230Z,97670.73
2017-10-20T01:49:51.878Z,97671.16
2017-10-20T01:50:23.526Z,97673.29
2017-10-20T01:50:55.426Z,97670.34
2017-10-20T01:51:27.078Z,97676.27
2017-10-20T01:51:58.726Z,97671.63
2017-10-20T01:52:30.608Z,97672.91
2017-10-20T01:53:02.307Z,97676.73
2017-10-20T01:53:33.958Z,97672.48
2017-10-20T01:54:05.606Z,97677.59
2017-10-20T01:54:37.257Z,97676.73
2017-10-20T01:55:08.905Z,97677.55
2017-10-20T01:55:40.550Z,97677.55
2017-10-20T01:56:12.198Z,97675.84
2017-10-20T01:56:43.850Z,97672.06
2017-10-20T01:57:15.499Z,97666.11
2017-10-20T01:57:47.384Z,97675.05
2017-10-20T01:58:19.333Z,97677.17
2017-10-20T01:58:50.981Z,97675.48
2017-10-20T01:59:22.678Z,97673.34
2017-10-20T01:59:54.330Z,97681.00
2017-10-20T02:00:26.160Z,97678.88
2017-10-20T02:00:58.050Z,97680.15
2017-10-20T02:01:29.800Z,97675.03
2017-10-20T02:02:01.451Z,97674.56
2017-10-20T02:02:33.098Z,97675.89
2017-10-20T02:03:04.747Z,97675.45
2017-10-20T02:03:36.394Z,97679.72
2017-10-20T02:04:08.037Z,97673.29
2017-10-20T02:04:39.718Z,97675.41
2017-10-20T02:05:11.600Z,97675.45
2017-10-20T02:05:43.250Z,97678.81
2017-10-20T02:06:14.902Z,97679.28
2017-10-20T02:06:46.549Z,97679.23
2017-10-20T02:07:18.198Z,97680.14
2017-10-20T02:07:50.120Z,97672.44
2017-10-20T02:08:21.782Z,97674.56
2017-10-20T02:08:53.430Z,97675.45
2017-10-20T02:09:25.078Z,97666.09
2017-10-20T02:09:56.726Z,97669.50
2017-10-20T02:10:28.373Z,97667.39
2017-10-20T02:11:00.166Z,97669.94
2017-10-20T02:11:31.918Z,97669.11
2017-10-20T02:12:03.570Z,97670.80
2017-10-20T02:12:35.215Z,97667.89
2017-10-20T02:13:07.123Z,97673.78
2017-10-20T02:13:38.791Z,97672.92
2017-10-20T02:14:10.442Z,97667.81
2017-10-20T02:14:42.090Z,97669.52
2017-10-20T02:15:13.737Z,97660.16
2017-10-20T02:15:45.385Z,97673.34
2017-10-20T02:16:17.034Z,97667.81
2017-10-20T02:16:48.682Z,97667.81
2017-10-20T02:17:20.331Z,97670.38
2017-10-20T02:17:51.982Z,97667.83
2017-10-20T02:18:23.630Z,97665.32
2017-10-20T02:18:55.279Z,97669.15
2017-10-20T02:19:27.160Z,97664.90
2017-10-20T02:19:59.002Z,97668.30
2017-10-20T02:20:30.750Z,97669.58
2017-10-20T02:21:02.700Z,97671.72
2017-10-20T02:21:34.350Z,97669.22
2017-10-20T02:22:06.002Z,97678.11
2017-10-20T02:22:37.654Z,97667.48
2017-10-20T02:23:09.545Z,97669.59
2017-10-20T02:23:41.216Z,97664.91
2017-10-20T02:24:12.866Z,97666.63
2017-10-20T02:24:44.514Z,97670.88
2017-10-20T02:25:16.162Z,97667.52
2017-10-20T02:25:47.809Z,97668.39
2017-10-20T02:26:19.733Z,97662.07
2017-10-20T02:26:51.382Z,97666.25
2017-10-20T02:27:23.034Z,97665.83
2017-10-20T02:27:54.682Z,97672.22
2017-10-20T02:28:26.604Z,97661.16
2017-10-20T02:28:58.557Z,97658.62
2017-10-20T02:29:30.205Z,97668.44
2017-10-20T02:30:01.854Z,97665.05
2017-10-20T02:30:33.502Z,97660.80
2017-10-20T02:31:05.432Z,97665.89
2017-10-20T02:31:37.122Z,97665.05
2017-10-20T02:32:09.024Z,97671.44
2017-10-20T02:32:40.675Z,97659.53
2017-10-20T02:33:12.629Z,97664.63
2017-10-20T02:33:44.286Z,97660.39
2017-10-20T02:34:15.934Z,97664.22
2017-10-20T02:34:47.709Z,97658.73
2017-10-20T02:35:19.369Z,97663.38
2017-10-20T02:35:51.131Z,97662.09
2017-10-20T02:36:22.828Z,97668.47
2017-10-20T02:36:54.718Z,97658.73
2017-10-20T02:37:26.672Z,97663.41
2017-10-20T02:37:58.500Z,97665.50
2017-10-20T02:38:30.262Z,97660.38
2017-10-20T02:39:01.910Z,97663.36
2017-10-20T02:39:33.563Z,97665.05
2017-10-20T02:40:05.525Z,97662.88
2017-10-20T02:40:37.339Z,97659.89
2017-10-20T02:41:08.994Z,97656.95
2017-10-20T02:41:40.646Z,97658.66
2017-10-20T02:42:12.568Z,97655.27
2017-10-20T02:42:44.523Z,97659.09
2017-10-20T02:43:16.268Z,97653.98
2017-10-20T02:43:47.922Z,97653.15
2017-10-20T02:44:19.570Z,97656.55
2017-10-20T02:44:51.265Z,97660.80
2017-10-20T02:45:23.142Z,97658.25
2017-10-20T02:45:55.027Z,97654.84
2017-10-20T02:46:26.684Z,97657.41
2017-10-20T02:46:58.334Z,97657.41
2017-10-20T02:47:29.981Z,97654.86
2017-10-20T02:48:01.858Z,97650.58
2017-10-20T02:48:33.511Z,97657.03
2017-10-20T02:49:05.162Z,97655.33
2017-10-20T02:49:36.810Z,97655.34
2017-10-20T02:50:08.498Z,97654.08
2017-10-20T02:50:40.176Z,97656.62
2017-10-20T02:51:11.874Z,97657.05
2017-10-20T02:51:43.762Z,97654.48
2017-10-20T02:52:15.717Z,97657.03
2017-10-20T02:52:47.365Z,97657.45
2017-10-20T02:53:19.010Z,97657.89
2017-10-20T02:53:50.661Z,97655.77
2017-10-20T02:54:22.309Z,97653.65
2017-10-20T02:54:53.954Z,97657.89
2017-10-20T02:55:25.616Z,97657.89
2017-10-20T02:55:57.517Z,97656.61
2017-10-20T02:56:29.466Z,97654.91
2017-10-20T02:57:01.118Z,97659.59
2017-10-20T02:57:32.767Z,97656.56
2017-10-20T02:58:04.414Z,97659.54
2017-10-20T02:58:36.066Z,97657.39
2017-10-20T02:59:07.714Z,97657.39
2017-10-20T02:59:39.362Z,97663.72
2017-10-20T03:00:11.014Z,97661.58
2017-10-20T03:00:42.666Z,97664.55
2017-10-20T03:01:14.550Z,97651.78
2017-10-20T03:01:46.230Z,97660.28
2017-10-20T03:02:18.053Z,97661.09
2017-10-20T03:02:49.710Z,97659.38
2017-10-20T03:03:21.358Z,97664.86
2017-10-20T03:03:53.014Z,97657.20
2017-10-20T03:04:24.661Z,97662.29
2017-10-20T03:04:56.310Z,97658.88
2017-10-20T03:05:28.196Z,97652.50
2017-10-20T03:05:59.941Z,97659.72
2017-10-20T03:06:31.594Z,97655.03
2017-10-20T03:07:03.282Z,97657.12
2017-10-20T03:07:34.930Z,97652.86
2017-10-20T03:08:06.812Z,97654.98
2017-10-20T03:08:38.766Z,97657.12
2017-10-20T03:09:10.414Z,97661.37
2017-10-20T03:09:42.066Z,97655.84
2017-10-20T03:10:13.718Z,97658.81
2017-10-20T03:10:45.377Z,97653.70
2017-10-20T03:11:17.077Z,97659.23
2017-10-20T03:11:48.726Z,97654.96
2017-10-20T03:12:20.382Z,97661.72
2017-10-20T03:12:52.030Z,97659.17
2017-10-20T03:13:23.687Z,97659.17
2017-10-20T03:13:55.338Z,97663.86
2017-10-20T03:14:26.985Z,97661.71
2017-10-20T03:14:58.775Z,97664.70
2017-10-20T03:15:30.726Z,97660.86
2017-10-20T03:16:02.374Z,97663.39
2017-10-20T03:16:34.054Z,97658.71
2017-10-20T03:17:05.958Z,97664.18
2017-10-20T03:17:37.610Z,97662.47
2017-10-20T03:18:09.261Z,97666.73
2017-10-20T03:18:40.918Z,97671.78
2017-10-20T03:19:12.567Z,97671.35
2017-10-20T03:19:44.213Z,97674.76
2017-10-20T03:20:15.866Z,97673.05
2017-10-20T03:20:47.758Z,97677.73
2017-10-20T03:21:19.458Z,97675.17
2017-10-20T03:21:51.106Z,97676.47
2017-10-20T03:22:22.758Z,97676.09
2017-10-20T03:22:54.633Z,97676.08
2017-10-20T03:23:26.284Z,97678.63
2017-10-20T03:23:57.936Z,97674.81
2017-10-20T03:24:29.586Z,97673.53
2017-10-20T03:25:01.235Z,97677.36
2017-10-20T03:25:32.882Z,97676.11
2017-10-20T03:26:04.530Z,97676.95
2017-10-20T03:26:36.408Z,97679.91
2017-10-20T03:27:08.076Z,97682.47
2017-10-20T03:27:39.726Z,97685.03
2017-10-20T03:28:11.422Z,97683.77
2017-10-20T03:28:43.302Z,97682.92
2017-10-20T03:29:15.257Z,97678.30
2017-10-20T03:29:46.907Z,97679.09
2017-10-20T03:30:18.558Z,97680.84
2017-10-20T03:30:50.210Z,97677.88
2017-10-20T03:31:21.860Z,97673.63
2017-10-20T03:31:53.514Z,97667.30
2017-10-20T03:32:25.166Z,97671.52
2017-10-20T03:32:57.058Z,97677.50
2017-10-20T03:33:28.738Z,97677.09
2017-10-20T03:34:00.386Z,97672.84
2017-10-20T03:34:32.038Z,97675.34
2017-10-20T03:35:03.829Z,97670.70
2017-10-20T03:35:35.575Z,97675.38
2017-10-20T03:36:07.523Z,97674.11
2017-10-20T03:36:39.472Z,97673.70
2017-10-20T03:37:11.134Z,97677.11
2017-10-20T03:37:42.782Z,97677.59
2017-10-20T03:38:14.430Z,97680.57
2017-10-20T03:38:46.300Z,97673.79
2017-10-20T03:39:18.193Z,97670.42
2017-10-20T03:39:49.847Z,97673.79
2017-10-20T03:40:21.498Z,97675.11
2017-10-20T03:40:53.154Z,97673.41
2017-10-20T03:41:24.806Z,97667.05
2017-10-20T03:41:56.453Z,97672.15
2017-10-20T03:42:28.106Z,97671.77
2017-10-20T03:42:59.790Z,97670.07
2017-10-20T03:43:31.490Z,97668.75
2017-10-20T03:44:03.138Z,97665.77
2017-10-20T03:44:34.980Z,97667.88
2017-10-20T03:45:06.669Z,97672.12
2017-10-20T03:45:38.330Z,97672.98
2017-10-20T03:46:09.977Z,97670.88
2017-10-20T03:46:41.627Z,97673.44
2017-10-20T03:47:13.274Z,97670.50
2017-10-20T03:47:44.924Z,97669.65
2017-10-20T03:48:16.576Z,97673.07
2017-10-20T03:48:48.278Z,97667.13
2017-10-20T03:49:19.930Z,97673.92
2017-10-20T03:49:51.577Z,97670.95
2017-10-20T03:50:23.226Z,97664.98
2017-10-20T03:50:54.928Z,97671.38
2017-10-20T03:51:26.583Z,97672.66
2017-10-20T03:51:58.234Z,97674.83
2017-10-20T03:52:29.958Z,97670.16
2017-10-20T03:53:01.611Z,97677.39
2017-10-20T03:53:33.551Z,97671.45
2017-10-20T03:54:05.498Z,97672.30
2017-10-20T03:54:37.150Z,97675.71
2017-10-20T03:55:08.801Z,97675.33
2017-10-20T03:55:40.475Z,97667.70
2017-10-20T03:56:12.266Z,97671.52
2017-10-20T03:56:44.015Z,97668.13
2017-10-20T03:57:15.964Z,97671.53
2017-10-20T03:57:47.615Z,97672.41
2017-10-20T03:58:19.278Z,97671.53
2017-10-20T03:58:50.934Z,97674.50
2017-10-20T03:59:22.581Z,97673.65
2017-10-20T03:59:54.411Z,97674.55
2017-10-20T04:00:26.060Z,97672.91
2017-10-20T04:00:57.710Z,97671.17
2017-10-20T04:01:29.378Z,97669.04
2017-10-20T04:02:01.048Z,97669.89
2017-10-20T04:02:32.737Z,97667.81
2017-10-20T04:03:04.626Z,97675.42
2017-10-20T04:03:36.484Z,97667.39
2017-10-20T04:04:08.138Z,97672.92
2017-10-20T04:04:39.873Z,97672.50
2017-10-20T04:05:11.534Z,97669.53
2017-10-20T04:05:43.419Z,97671.22
2017-10-20T04:06:15.117Z,97669.95
2017-10-20T04:06:46.766Z,97669.53
2017-10-20T04:07:18.423Z,97669.08
2017-10-20T04:07:50.069Z,97672.50
2017-10-20T04:08:21.713Z,97672.52
2017-10-20T04:08:53.362Z,97668.67
2017-10-20T04:09:25.014Z,97674.21
2017-10-20T04:09:56.663Z,97672.08
2017-10-20T04:10:28.314Z,97670.38
2017-10-20T04:10:59.962Z,97671.67
2017-10-20T04:11:31.831Z,97671.67
2017-10-20T04:12:03.490Z,97678.05
2017-10-20T04:12:35.297Z,97674.69
2017-10-20T04:13:07.066Z,97668.30
2017-10-20T04:13:38.715Z,97670.86
2017-10-20T04:14:10.362Z,97668.70
2017-10-20T04:14:42.010Z,97669.95
2017-10-20T04:15:13.658Z,97664.87
2017-10-20T04:15:45.317Z,97668.70
2017-10-20T04:16:16.966Z,97672.14
2017-10-20T04:17:25.421Z,97670.39
2017-10-20T04:17:57.086Z,97670.39
2017-10-20T04:18:28.713Z,97671.66
2017-10-20T04:19:00.393Z,97674.20
2017-10-20T04:19:32.014Z,97672.03
2017-10-20T04:20:03.634Z,97677.17
2017-10-20T04:20:35.273Z,97674.58
2017-10-20T04:21:06.922Z,97674.56
2017-10-20T04:21:38.554Z,97670.30
2017-10-20T04:22:10.202Z,97671.16
2017-10-20T04:22:41.842Z,97674.14
2017-10-20T04:23:13.488Z,97673.77
2017-10-20T04:23:45.124Z,97671.22
2017-10-20T04:24:16.789Z,97674.20
2017-10-20T04:24:48.717Z,97672.08
2017-10-20T04:25:20.357Z,97676.28
2017-10-20T04:25:51.996Z,97678.39
2017-10-20T04:26:23.643Z,97681.00
2017-10-20T04:26:55.310Z,97675.90
2017-10-20T04:27:26.946Z,97680.57
2017-10-20T04:27:58.874Z,97673.36
2017-10-20T04:28:30.518Z,97674.20
2017-10-20T04:29:02.349Z,97672.94
2017-10-20T04:29:34.018Z,97676.77
2017-10-20T04:30:05.750Z,97674.22
2017-10-20T04:30:37.390Z,97675.08
2017-10-20T04:31:09.062Z,97675.06
2017-10-20T04:31:40.693Z,97682.30
2017-10-20T04:32:12.323Z,97670.73
2017-10-20T04:32:43.981Z,97676.13
2017-10-20T04:33:15.908Z,97671.00
2017-10-20T04:33:47.546Z,97676.11
2017-10-20T04:34:19.188Z,97671.44
2017-10-20T04:34:50.805Z,97673.56
2017-10-20T04:35:22.421Z,97672.30
2017-10-20T04:35:54.041Z,97671.50
2017-10-20T04:36:25.661Z,97666.03
2017-10-20T04:36:57.401Z,97668.59
2017-10-20T04:37:29.043Z,97669.03
2017-10-20T04:38:00.701Z,97669.94
2017-10-20T04:38:32.327Z,97662.70
2017-10-20T04:39:03.968Z,97661.31
2017-10-20T04:39:35.610Z,97663.84
2017-10-20T04:40:07.249Z,97659.16
2017-10-20T04:40:38.894Z,97659.17
2017-10-20T04:41:10.543Z,97660.46
2017-10-20T04:41:42.412Z,97654.13
2017-10-20T04:42:15.049Z,97660.54
2017-10-20T04:42:46.691Z,97658.05
2017-10-20T04:43:18.332Z,97657.27
2017-10-20T04:43:49.955Z,97657.32
2017-10-20T04:44:21.575Z,97654.37
2017-10-20T04:44:53.258Z,97660.37
2017-10-20T04:45:24.900Z,97656.98
2017-10-20T04:45:56.541Z,97655.72
2017-10-20T04:46:28.193Z,97652.80
2017-10-20T04:46:59.826Z,97660.09
2017-10-20T04:47:31.494Z,97658.84
2017-10-20T04:48:03.113Z,97648.20
2017-10-20T04:48:34.749Z,97654.20
2017-10-20T04:49:06.393Z,97660.16
2017-10-20T04:49:38.032Z,97652.09
2017-10-20T04:50:09.674Z,97651.25
2017-10-20T04:50:41.303Z,97653.38
2017-10-20T04:51:12.934Z,97647.91
2017-10-20T04:51:44.558Z,97655.98
2017-10-20T04:52:16.178Z,97655.72
2017-10-20T04:52:47.838Z,97653.21
2017-10-20T04:53:19.458Z,97648.89
2017-10-20T04:53:51.074Z,97650.23
2017-10-20T04:54:22.812Z,97651.52
2017-10-20T04:54:54.452Z,97648.87
2017-10-20T04:55:26.122Z,97656.36
2017-10-20T04:55:57.741Z,97656.17
2017-10-20T04:56:29.377Z,97653.76
2017-10-20T04:57:01.028Z,97654.37
2017-10-20T04:57:32.660Z,97658.79
2017-10-20T04:58:04.303Z,97656.31
2017-10-20T04:58:35.944Z,97659.28
2017-10-20T04:59:07.589Z,97653.63
2017-10-20T04:59:39.228Z,97653.89
2017-10-20T05:00:10.872Z,97662.63
2017-10-20T05:00:42.534Z,97656.91
2017-10-20T05:01:14.356Z,97655.45
2017-10-20T05:01:46.107Z,97652.71
2017-10-20T05:02:17.745Z,97650.87
2017-10-20T05:02:49.387Z,97648.59
2017-10-20T05:03:21.029Z,97653.11
2017-10-20T05:03:52.682Z,97652.97
2017-10-20T05:04:24.358Z,97648.20
2017-10-20T05:04:55.989Z,97649.38
2017-10-20T05:05:27.612Z,97649.30
2017-10-20T05:05:59.241Z,97641.52
2017-10-20T05:06:30.880Z,97643.14
2017-10-20T05:07:02.524Z,97645.20
2017-10-20T05:07:34.168Z,97643.42
2017-10-20T05:08:05.812Z,97645.06
2017-10-20T05:08:37.450Z,97646.27
2017-10-20T05:09:09.090Z,97647.89
2017-10-20T05:09:40.763Z,97650.38
2017-10-20T05:10:12.382Z,97647.34
2017-10-20T05:10:44.018Z,97654.08
2017-10-20T05:11:15.658Z,97649.75
2017-10-20T05:11:47.312Z,97653.13
2017-10-20T05:12:18.947Z,97659.02
2017-10-20T05:12:50.583Z,97654.28
2017-10-20T05:13:22.243Z,97654.63
2017-10-20T05:13:53.873Z,97654.13
2017-10-20T05:14:25.509Z,97658.74
2017-10-20T05:14:57.198Z,97661.23
2017-10-20T05:15:28.817Z,97658.61
2017-10-20T05:16:00.744Z,97654.70
2017-10-20T05:16:32.386Z,97658.88
2017-10-20T05:17:04.012Z,97663.77
2017-10-20T05:17:35.667Z,97657.11
2017-10-20T05:18:07.315Z,97657.70
2017-10-20T05:18:38.951Z,97659.61
2017-10-20T05:19:10.597Z,97660.10
2017-10-20T05:19:42.239Z,97652.55
2017-10-20T05:20:13.918Z,97655.63
2017-10-20T05:20:45.538Z,97652.30
2017-10-20T05:21:17.470Z,97659.94
2017-10-20T05:21:49.109Z,97657.33
2017-10-20T05:22:20.751Z,97649.08
2017-10-20T05:22:52.393Z,97657.40
2017-10-20T05:23:24.037Z,97661.80
2017-10-20T05:23:55.658Z,97655.55
2017-10-20T05:24:27.290Z,97652.69
2017-10-20T05:24:58.909Z,97655.38
2017-10-20T05:25:30.525Z,97657.44
2017-10-20T05:26:02.248Z,97655.52
2017-10-20T05:26:33.889Z,97655.69
2017-10-20T05:27:05.529Z,97656.68
2017-10-20T05:27:37.171Z,97657.90
2017-10-20T05:28:08.816Z,97655.42
2017-10-20T05:28:40.456Z,97653.45
2017-10-20T05:29:12.098Z,97659.53
2017-10-20T05:29:43.718Z,97666.55
2017-10-20T05:30:15.334Z,97660.39
2017-10-20T05:30:46.985Z,97667.46
2017-10-20T05:31:18.975Z,97658.45
2017-10-20T05:31:50.618Z,97664.27
2017-10-20T05:32:22.237Z,97659.52
2017-10-20T05:32:53.858Z,97659.00
2017-10-20T05:33:25.481Z,97661.92
2017-10-20T05:33:57.097Z,97656.36
2017-10-20T05:34:28.825Z,97657.92
2017-10-20T05:35:00.468Z,97665.16
2017-10-20T05:35:32.107Z,97661.29
2017-10-20T05:36:03.748Z,97668.04
2017-10-20T05:36:35.426Z,97664.67
2017-10-20T05:37:07.042Z,97664.62
2017-10-20T05:37:38.677Z,97664.19
2017-10-20T05:38:10.315Z,97662.91
2017-10-20T05:38:41.960Z,97671.41
2017-10-20T05:39:13.602Z,97670.08
2017-10-20T05:39:45.244Z,97664.53
2017-10-20T05:40:16.885Z,97672.14
2017-10-20T05:40:48.527Z,97671.70
2017-10-20T05:41:20.169Z,97670.91
2017-10-20T05:41:51.854Z,97672.20
2017-10-20T05:42:23.469Z,97672.62
2017-10-20T05:42:55.102Z,97668.37
2017-10-20T05:43:26.739Z,97668.42
2017-10-20T05:43:58.380Z,97670.50
2017-10-20T05:44:30.021Z,97665.80
2017-10-20T05:45:01.664Z,97670.14
2017-10-20T05:45:33.305Z,97671.86
2017-10-20T05:46:04.948Z,97670.16
2017-10-20T05:46:36.589Z,97670.64
2017-10-20T05:47:08.269Z,97669.30
2017-10-20T05:47:39.889Z,97671.88
2017-10-20T05:48:11.515Z,97669.35
2017-10-20T05:48:43.156Z,97669.83
2017-10-20T05:49:14.798Z,97671.18
2017-10-20T05:49:46.442Z,97673.67
2017-10-20T05:50:18.082Z,97669.91
2017-10-20T05:50:49.724Z,97672.10
2017-10-20T05:51:21.363Z,97673.34
2017-10-20T05:51:53.007Z,97672.55
2017-10-20T05:52:24.666Z,97672.61
2017-10-20T05:52:56.599Z,97672.64
2017-10-20T05:53:28.241Z,97675.61
2017-10-20T05:53:59.883Z,97680.37
2017-10-20T05:54:31.522Z,97680.80
2017-10-20T05:55:03.168Z,97689.30
2017-10-20T05:55:34.805Z,97683.40
2017-10-20T05:56:06.509Z,97685.55
2017-10-20T05:56:38.129Z,97682.61
2017-10-20T05:57:09.790Z,97683.89
2017-10-20T05:57:41.442Z,97684.28
2017-10-20T05:58:13.287Z,97687.31
2017-10-20T05:58:44.914Z,97687.75
2017-10-20T05:59:16.541Z,97682.70
2017-10-20T05:59:48.157Z,97684.47
2017-10-20T06:00:19.909Z,97684.47
2017-10-20T06:00:51.778Z,97689.11
2017-10-20T06:01:23.397Z,97688.25
2017-10-20T06:01:55.126Z,97688.74
2017-10-20T06:02:26.768Z,97690.07
2017-10-20T06:02:58.409Z,97690.51
2017-10-20T06:03:30.051Z,97689.66
2017-10-20T06:04:01.691Z,97687.59
2017-10-20T06:04:33.335Z,97685.91
2017-10-20T06:05:04.955Z,97683.84
2017-10-20T06:05:36.573Z,97687.25
2017-10-20T06:06:08.226Z,97686.41
2017-10-20T06:06:39.846Z,97689.81
2017-10-20T06:07:11.466Z,97687.30
2017-10-20T06:07:43.186Z,97685.19
2017-10-20T06:08:14.826Z,97682.22
2017-10-20T06:08:46.498Z,97688.23
2017-10-20T06:09:18.123Z,97682.23
2017-10-20T06:09:50.064Z,97688.66
2017-10-20T06:10:21.700Z,97687.38
2017-10-20T06:10:53.345Z,97685.27
2017-10-20T06:11:24.987Z,97684.01
2017-10-20T06:11:56.629Z,97685.33
2017-10-20T06:12:28.270Z,97680.23
2017-10-20T06:12:59.910Z,97684.54